Time;durP1;ratioP1;P1;durP2;ratioP2;P2;SDS_P1;SDS_P2;PMS_P1;PMS_P2;Temp;Humidity;BMP_temperature;BMP_pressure;BME280_temperature;BME280_humidity;BME280_pressure;Samples;Min_cycle;Max_cycle;Signal;HPM_P1;HPM_P2
2022/06/17 00:02:09;;;;;;;6.17;4.40;;;;;;;15.41;100.00;97539.78;5027193;28;20238;-60
2022/06/17 00:04:38;;;;;;;4.63;4.20;;;;;;;15.39;100.00;97547.19;5008979;28;20454;-62
2022/06/17 00:07:08;;;;;;;5.07;3.87;;;;;;;15.28;100.00;97541.41;5029450;28;20401;-63
2022/06/17 00:09:37;;;;;;;4.00;3.80;;;;;;;15.30;100.00;97542.03;5006764;28;20990;-63
2022/06/17 00:12:08;;;;;;;4.57;4.17;;;;;;;15.35;100.00;97549.44;5041989;28;20230;-63
2022/06/17 00:15:11;;;;;;;5.17;4.77;;;;;;;15.23;100.00;97551.88;5039094;28;20218;-63
2022/06/17 00:17:26;;;;;;;4.53;4.23;;;;;;;15.19;100.00;97551.50;5033701;28;20924;-63
2022/06/17 00:19:54;;;;;;;5.03;4.63;;;;;;;15.23;100.00;97553.75;5044454;28;20604;-62
2022/06/17 00:22:25;;;;;;;4.60;4.23;;;;;;;15.17;100.00;97560.72;4991804;28;20210;-62
2022/06/17 00:24:54;;;;;;;4.67;4.37;;;;;;;15.09;100.00;97558.25;5044813;28;20599;-64
2022/06/17 00:27:23;;;;;;;4.47;4.17;;;;;;;15.10;100.00;97559.88;5027998;28;20207;-62
2022/06/17 00:29:52;;;;;;;5.43;4.93;;;;;;;14.91;100.00;97562.31;5043283;28;20276;-62
2022/06/17 00:32:20;;;;;;;4.57;4.23;;;;;;;14.85;100.00;97560.47;5038753;28;20199;-62
2022/06/17 00:34:48;;;;;;;4.13;3.93;;;;;;;14.73;100.00;97571.72;5043420;28;22852;-63
2022/06/17 00:37:16;;;;;;;4.83;4.33;;;;;;;14.79;100.00;97570.09;5034755;28;20211;-61
2022/06/17 00:39:44;;;;;;;4.83;4.43;;;;;;;14.64;100.00;97569.41;5004666;28;20847;-60
2022/06/17 00:42:14;;;;;;;4.90;4.50;;;;;;;14.71;100.00;97570.28;5027900;28;20313;-63
2022/06/17 00:48:29;;;;;;;4.70;4.40;;;;;;;14.47;100.00;97570.56;5008781;28;21009;-61
2022/06/17 00:51:01;;;;;;;5.30;4.90;;;;;;;14.60;100.00;97567.13;5015465;28;20413;-63
2022/06/17 00:53:32;;;;;;;5.00;4.70;;;;;;;14.53;100.00;97570.78;4972747;28;20679;-64
2022/06/17 00:56:01;;;;;;;5.43;5.03;;;;;;;14.51;100.00;97572.84;5018129;28;20293;-63
2022/06/17 00:58:32;;;;;;;4.83;4.53;;;;;;;14.42;100.00;97575.69;5000423;28;20453;-64
2022/06/17 01:01:03;;;;;;;5.30;4.90;;;;;;;14.54;100.00;97578.59;5014970;28;20701;-63
2022/06/17 01:03:35;;;;;;;5.20;4.93;;;;;;;14.31;100.00;97577.06;5012986;28;20711;-64
2022/06/17 01:06:06;;;;;;;5.07;4.57;;;;;;;14.33;100.00;97587.53;5030366;28;20269;-64
2022/06/17 01:11:24;;;;;;;4.80;4.40;;;;;;;14.55;100.00;97590.91;5039815;28;20674;-64
2022/06/17 01:13:53;;;;;;;5.43;4.93;;;;;;;14.59;100.00;97599.34;5024510;28;20245;-61
2022/06/17 01:16:25;;;;;;;4.87;4.57;;;;;;;14.66;100.00;97597.53;5046753;28;20195;-60
2022/06/17 01:18:55;;;;;;;5.37;4.93;;;;;;;14.51;100.00;97586.16;5042497;28;20308;-61
2022/06/17 01:21:28;;;;;;;5.23;4.83;;;;;;;14.48;100.00;97590.06;4987515;28;20744;-63
2022/06/17 01:23:58;;;;;;;4.80;4.40;;;;;;;14.50;100.00;97592.53;4921619;28;20253;-63
2022/06/17 01:26:26;;;;;;;5.13;4.40;;;;;;;14.51;100.00;97605.66;4948534;28;20332;-63
2022/06/17 01:28:54;;;;;;;5.20;4.90;;;;;;;14.65;100.00;97601.22;4945262;28;20535;-62
2022/06/17 01:31:23;;;;;;;4.87;4.50;;;;;;;14.56;100.00;97602.38;4965359;28;20300;-63
2022/06/17 01:33:51;;;;;;;5.10;4.80;;;;;;;14.53;100.00;97582.28;4961721;28;20238;-62
2022/06/17 01:36:22;;;;;;;5.50;5.10;;;;;;;14.41;100.00;97584.72;4965353;28;20237;-63
2022/06/17 01:38:53;;;;;;;4.90;4.33;;;;;;;14.48;100.00;97579.41;4962184;28;20884;-62
2022/06/17 01:41:25;;;;;;;5.27;4.80;;;;;;;14.61;100.00;97578.63;4937173;28;20218;-64
2022/06/17 01:43:55;;;;;;;4.80;4.40;;;;;;;14.63;100.00;97581.94;4946142;28;20320;-64
2022/06/17 01:46:27;;;;;;;8.47;5.37;;;;;;;14.65;100.00;97582.53;4963241;28;20236;-63
2022/06/17 01:49:11;;;;;;;5.07;4.77;;;;;;;14.51;100.00;97589.69;4964286;28;20213;-61
2022/06/17 01:51:42;;;;;;;5.10;4.70;;;;;;;14.39;100.00;97592.09;4963990;28;20216;-62
2022/06/17 01:54:13;;;;;;;5.37;4.40;;;;;;;14.26;100.00;97586.69;4961814;28;20857;-63
2022/06/17 01:56:44;;;;;;;5.40;5.00;;;;;;;14.37;100.00;97596.78;4927542;28;20841;-62
2022/06/17 01:59:17;;;;;;;5.23;4.77;;;;;;;14.33;100.00;97600.88;4943643;28;20272;-62
2022/06/17 02:01:49;;;;;;;5.10;4.77;;;;;;;14.17;100.00;97591.38;4963788;28;20293;-62
2022/06/17 02:04:20;;;;;;;5.30;4.90;;;;;;;14.02;100.00;97588.81;4962834;28;20299;-64
2022/06/17 02:06:53;;;;;;;4.70;4.40;;;;;;;13.97;100.00;97592.06;4965498;28;20874;-63
2022/06/17 02:09:21;;;;;;;5.60;5.10;;;;;;;13.93;100.00;97587.34;4966481;28;20293;-63
2022/06/17 02:11:51;;;;;;;4.90;4.47;;;;;;;13.82;100.00;97578.03;4944867;28;20293;-63
2022/06/17 02:14:20;;;;;;;5.03;4.60;;;;;;;13.86;100.00;97571.31;4922493;28;21018;-66
2022/06/17 02:16:51;;;;;;;4.50;4.20;;;;;;;13.73;100.00;97566.72;4948358;28;20280;-63
2022/06/17 02:19:20;;;;;;;4.80;4.33;;;;;;;13.68;100.00;97577.13;4964945;28;20205;-63
2022/06/17 02:21:51;;;;;;;5.77;4.83;;;;;;;13.69;100.00;97584.94;4945323;28;20198;-64
2022/06/17 02:24:20;;;;;;;4.83;4.47;;;;;;;13.78;100.00;97588.25;4963785;28;20226;-63
2022/06/17 02:26:50;;;;;;;4.80;4.40;;;;;;;13.70;100.00;97577.75;4967934;28;20228;-63
2022/06/17 02:29:19;;;;;;;4.57;4.27;;;;;;;13.59;100.00;97565.78;4920548;28;20764;-63
2022/06/17 02:31:48;;;;;;;5.10;4.70;;;;;;;13.72;100.00;97567.72;4964061;28;20294;-63
2022/06/17 02:34:18;;;;;;;3.97;3.77;;;;;;;13.51;100.00;97568.59;4962079;28;20268;-61
2022/06/17 02:36:55;;;;;;;5.00;4.60;;;;;;;13.40;100.00;97562.78;4966832;28;20318;-64
2022/06/17 02:39:23;;;;;;;4.43;4.13;;;;;;;13.39;100.00;97579.75;4942538;28;20220;-63
2022/06/17 02:41:53;;;;;;;4.37;4.17;;;;;;;13.47;100.00;97581.50;4967187;28;20323;-65
2022/06/17 02:44:25;;;;;;;5.57;5.10;;;;;;;13.49;100.00;97584.78;4963994;28;20241;-63
2022/06/17 02:46:55;;;;;;;4.97;4.57;;;;;;;13.51;100.00;97584.56;4925888;28;20610;-62
2022/06/17 02:49:25;;;;;;;4.53;4.10;;;;;;;13.53;100.00;97586.03;4961806;28;20284;-64
2022/06/17 02:51:54;;;;;;;4.97;4.67;;;;;;;13.53;100.00;97593.19;4962095;28;20216;-63
2022/06/17 02:54:25;;;;;;;4.97;4.67;;;;;;;13.65;100.00;97590.81;4947039;28;20236;-63
2022/06/17 02:56:56;;;;;;;5.20;4.80;;;;;;;13.49;100.00;97581.28;4960503;28;21123;-65
2022/06/17 02:59:28;;;;;;;4.80;4.40;;;;;;;13.50;100.00;97582.94;4964420;28;20963;-63
2022/06/17 03:02:00;;;;;;;4.57;4.27;;;;;;;13.51;100.00;97590.75;4926572;28;20300;-60
2022/06/17 03:04:30;;;;;;;4.90;4.40;;;;;;;13.41;100.00;97601.69;4959412;28;20340;-65
2022/06/17 03:06:58;;;;;;;5.43;5.07;;;;;;;13.40;100.00;97599.19;4967232;28;21047;-64
2022/06/17 03:09:28;;;;;;;4.80;4.40;;;;;;;13.27;100.00;97600.72;4925421;28;21012;-63
2022/06/17 03:12:02;;;;;;;4.97;4.67;;;;;;;13.18;100.00;97608.00;4967741;28;20205;-64
2022/06/17 03:14:34;;;;;;;4.87;4.40;;;;;;;13.23;100.00;97610.13;4959104;28;20316;-63
2022/06/17 03:17:06;;;;;;;5.00;4.60;;;;;;;13.25;100.00;97609.91;4920391;28;20600;-62
2022/06/17 03:19:36;;;;;;;4.73;4.33;;;;;;;13.24;100.00;97606.44;4939115;28;20292;-59
2022/06/17 03:22:05;;;;;;;4.73;4.37;;;;;;;13.22;100.00;97613.78;4960798;28;20639;-59
2022/06/17 03:24:43;;;;;;;7.37;4.33;;;;;;;13.18;100.00;97616.00;4954574;28;23064;-61
2022/06/17 03:27:16;;;;;;;4.37;4.07;;;;;;;13.20;100.00;97621.13;4920707;28;20327;-61
2022/06/17 03:29:45;;;;;;;4.40;4.10;;;;;;;13.11;100.00;97620.44;4962454;28;20228;-62
2022/06/17 03:32:17;;;;;;;4.75;4.45;;;;;;;13.11;100.00;97625.75;4918898;28;22933;-62
2022/06/17 03:34:49;;;;;;;4.90;4.50;;;;;;;13.24;100.00;97625.06;4963723;28;20217;-63
2022/06/17 03:37:21;;;;;;;4.90;4.47;;;;;;;13.18;100.00;97626.63;4961416;28;20229;-61
2022/06/17 03:39:52;;;;;;;4.68;4.38;;;;;;;13.07;100.00;97627.16;4960823;28;20530;-61
2022/06/17 03:42:25;;;;;;;4.37;4.07;;;;;;;13.01;100.00;97628.72;4944329;28;21165;-65
2022/06/17 03:45:04;;;;;;;4.17;3.93;;;;;;;12.96;100.00;97620.47;5043347;27;20634;-62
2022/06/17 03:47:41;;;;;;;4.87;4.53;;;;;;;12.94;100.00;97617.19;5058810;28;20297;-66
2022/06/17 03:50:18;;;;;;;4.20;3.90;;;;;;;12.88;100.00;97633.91;5049902;28;21149;-64
2022/06/17 03:52:49;;;;;;;4.07;3.87;;;;;;;12.85;100.00;97637.75;5057992;28;20926;-60
2022/06/17 03:55:19;;;;;;;4.87;4.50;;;;;;;13.17;100.00;97635.63;5054232;28;20203;-64
2022/06/17 03:57:50;;;;;;;4.50;4.20;;;;;;;13.16;100.00;97646.47;5040163;28;20480;-62
2022/06/17 04:00:23;;;;;;;5.63;5.13;;;;;;;13.21;100.00;97643.22;5035865;28;20213;-63
2022/06/17 04:02:52;;;;;;;5.00;4.60;;;;;;;13.23;100.00;97652.69;5053646;28;20299;-61
2022/06/17 04:05:21;;;;;;;5.00;4.70;;;;;;;13.20;100.00;97663.72;5011092;28;20233;-66
2022/06/17 04:07:50;;;;;;;4.53;4.23;;;;;;;13.27;100.00;97664.59;5051279;28;20290;-63
2022/06/17 04:10:21;;;;;;;4.20;3.90;;;;;;;13.29;100.00;97667.09;5062709;28;20563;-61
2022/06/17 04:12:50;;;;;;;4.80;4.43;;;;;;;13.44;100.00;97672.34;5038410;28;20285;-63
2022/06/17 04:15:32;;;;;;;4.23;4.03;;;;;;;13.50;100.00;97668.13;5042257;28;20365;-64
2022/06/17 04:18:00;;;;;;;6.50;4.50;;;;;;;13.63;100.00;97675.41;5057066;28;20536;-60
2022/06/17 04:20:33;;;;;;;4.37;4.17;;;;;;;13.82;100.00;97673.91;5017696;28;20682;-57
2022/06/17 04:23:04;;;;;;;6.03;4.37;;;;;;;13.83;100.00;97679.06;5001407;28;20302;-60
2022/06/17 04:25:35;;;;;;;4.70;4.30;;;;;;;13.94;100.00;97684.88;5058950;28;20206;-62
2022/06/17 04:28:07;;;;;;;4.50;4.20;;;;;;;14.13;100.00;97681.50;5038038;28;20597;-61
2022/06/17 04:30:42;;;;;;;4.40;4.03;;;;;;;14.07;100.00;97689.50;5059215;28;20624;-63
2022/06/17 04:33:21;;;;;;;5.53;5.07;;;;;;;14.22;100.00;97686.72;5040931;28;20334;-64
2022/06/17 04:35:52;;;;;;;4.47;4.17;;;;;;;14.29;100.00;97683.06;5056058;28;20277;-58
2022/06/17 04:38:21;;;;;;;4.63;4.27;;;;;;;14.37;100.00;97689.25;5023030;28;20211;-64
2022/06/17 04:40:54;;;;;;;4.68;4.32;;;;;;;14.44;100.00;97687.47;5056991;28;20507;-61
2022/06/17 04:43:28;;;;;;;4.83;4.53;;;;;;;14.60;100.00;97694.31;5055895;28;20687;-62
2022/06/17 04:46:01;;;;;;;5.00;4.63;;;;;;;14.74;100.00;97687.22;5058164;28;20251;-58
2022/06/17 04:48:29;;;;;;;4.07;3.67;;;;;;;14.89;100.00;97687.91;5057099;28;20837;-60
2022/06/17 04:50:58;;;;;;;4.47;4.17;;;;;;;14.99;100.00;97692.88;5040306;28;20211;-59
2022/06/17 04:53:26;;;;;;;5.13;4.60;;;;;;;15.04;100.00;97687.78;5014954;28;20313;-58
2022/06/17 04:55:55;;;;;;;3.97;3.77;;;;;;;15.23;100.00;97680.00;5044037;28;20235;-60
2022/06/17 04:58:25;;;;;;;5.03;4.63;;;;;;;15.40;100.00;97688.47;5039156;28;20547;-60
2022/06/17 05:00:56;;;;;;;4.70;4.37;;;;;;;15.41;100.00;97684.75;5043404;28;20297;-60
2022/06/17 05:03:28;;;;;;;4.80;4.40;;;;;;;15.45;100.00;97680.66;5040266;28;20392;-58
2022/06/17 05:05:56;;;;;;;4.53;4.23;;;;;;;15.56;100.00;97684.59;5030751;28;20306;-59
2022/06/17 05:08:27;;;;;;;4.20;3.90;;;;;;;15.73;100.00;97682.34;5003000;28;20814;-61
2022/06/17 05:11:01;;;;;;;4.33;4.03;;;;;;;15.88;100.00;97689.34;5041471;28;20226;-63
2022/06/17 05:13:33;;;;;;;4.10;3.90;;;;;;;16.02;100.00;97695.53;5042115;28;20313;-64
2022/06/17 05:16:01;;;;;;;4.17;3.87;;;;;;;16.01;100.00;97689.38;5041852;28;20299;-61
2022/06/17 05:18:30;;;;;;;4.73;4.07;;;;;;;16.15;100.00;97698.19;5040280;28;20427;-63
2022/06/17 05:20:58;;;;;;;4.23;3.93;;;;;;;16.17;100.00;97704.16;5035781;28;20245;-62
2022/06/17 05:23:27;;;;;;;4.57;4.17;;;;;;;16.40;100.00;97702.06;5002609;28;20342;-61
2022/06/17 05:25:55;;;;;;;4.03;3.37;;;;;;;16.56;100.00;97709.63;5043606;28;20313;-61
2022/06/17 05:28:23;;;;;;;5.10;4.37;;;;;;;16.78;100.00;97712.84;5034205;28;20912;-62
2022/06/17 05:30:53;;;;;;;4.77;4.17;;;;;;;16.84;100.00;97711.19;5044892;28;20207;-63
2022/06/17 05:33:24;;;;;;;4.20;4.00;;;;;;;17.00;100.00;97709.94;5032463;28;20233;-60
2022/06/17 05:35:54;;;;;;;3.80;3.40;;;;;;;17.11;100.00;97705.78;5029430;28;21538;-62
2022/06/17 05:38:22;;;;;;;4.20;3.90;;;;;;;17.09;100.00;97704.34;5034760;28;20203;-62
2022/06/17 05:40:50;;;;;;;4.33;3.93;;;;;;;17.34;100.00;97707.91;5023762;28;20207;-58
2022/06/17 05:43:19;;;;;;;3.90;3.70;;;;;;;17.30;100.00;97703.19;5043311;28;20239;-62
2022/06/17 05:45:47;;;;;;;4.03;3.80;;;;;;;17.48;100.00;97703.31;5036409;28;20528;-63
2022/06/17 05:48:15;;;;;;;3.77;3.47;;;;;;;17.55;100.00;97708.59;5036398;28;20298;-62
2022/06/17 05:50:43;;;;;;;4.00;3.80;;;;;;;17.69;100.00;97709.34;5026820;28;20645;-62
2022/06/17 05:53:14;;;;;;;3.87;3.67;;;;;;;17.83;100.00;97710.06;5040879;28;20305;-61
2022/06/17 05:55:42;;;;;;;3.80;3.50;;;;;;;17.96;100.00;97708.31;5004186;28;20782;-64
2022/06/17 05:58:10;;;;;;;4.20;3.90;;;;;;;18.04;100.00;97718.81;5019220;28;20252;-61
2022/06/17 06:00:38;;;;;;;4.70;3.60;;;;;;;18.19;100.00;97716.59;5042502;28;20207;-61
2022/06/17 06:03:08;;;;;;;5.15;3.80;;;;;;;18.16;100.00;97724.25;5019824;28;21231;-61
2022/06/17 06:05:36;;;;;;;4.45;3.90;;;;;;;18.44;100.00;97725.66;5042971;28;20446;-64
2022/06/17 06:08:05;;;;;;;6.90;3.43;;;;;;;18.42;97.35;97730.44;5025929;28;20196;-61
2022/06/17 06:10:36;;;;;;;4.63;3.37;;;;;;;18.47;99.02;97733.25;5004790;28;20712;-61
2022/06/17 06:13:04;;;;;;;4.30;3.90;;;;;;;18.69;96.10;97732.84;5039540;28;20444;-61
2022/06/17 06:15:35;;;;;;;4.50;4.20;;;;;;;18.64;97.85;97725.47;5040538;28;20893;-64
2022/06/17 06:18:04;;;;;;;3.70;3.40;;;;;;;18.61;97.33;97742.00;5006912;28;20218;-63
2022/06/17 06:20:32;;;;;;;3.50;3.20;;;;;;;18.86;99.11;97741.94;5043240;28;20553;-63
2022/06/17 06:23:00;;;;;;;4.13;3.83;;;;;;;19.14;99.07;97750.56;5026781;28;20199;-63
2022/06/17 06:25:29;;;;;;;4.47;3.70;;;;;;;19.14;93.82;97753.25;5038797;28;20457;-65
2022/06/17 06:27:59;;;;;;;4.40;3.83;;;;;;;19.33;91.80;97745.97;4995584;28;20300;-64
2022/06/17 06:30:30;;;;;;;4.17;3.70;;;;;;;19.43;90.97;97757.00;5012887;28;20204;-61
2022/06/17 06:33:00;;;;;;;10.63;5.27;;;;;;;19.52;89.44;97755.63;5041277;28;20777;-61
2022/06/17 06:35:30;;;;;;;5.07;3.40;;;;;;;19.81;88.84;97755.84;5029160;28;20278;-64
2022/06/17 06:37:58;;;;;;;4.10;3.03;;;;;;;19.99;85.05;97756.03;5041647;28;20710;-62
2022/06/17 06:40:27;;;;;;;3.70;3.40;;;;;;;20.09;85.05;97757.09;5039582;28;20390;-63
2022/06/17 06:42:58;;;;;;;3.50;3.30;;;;;;;20.19;80.19;97763.78;5030427;28;20329;-65
2022/06/17 06:45:28;;;;;;;3.13;2.93;;;;;;;20.16;70.59;97756.19;5028621;28;21053;-63
2022/06/17 06:47:58;;;;;;;3.10;2.90;;;;;;;20.32;68.58;97758.16;5039174;28;20602;-62
2022/06/17 06:50:29;;;;;;;2.80;2.60;;;;;;;20.40;68.67;97767.78;5025736;28;20897;-65
2022/06/17 06:52:57;;;;;;;4.03;3.07;;;;;;;20.50;66.92;97764.50;5039637;28;20363;-62
2022/06/17 06:55:26;;;;;;;2.73;2.53;;;;;;;20.74;66.79;97762.63;5039848;28;20582;-63
2022/06/17 06:57:56;;;;;;;2.67;2.47;;;;;;;20.85;65.28;97766.38;5034012;28;20862;-61
2022/06/17 07:00:28;;;;;;;3.13;2.93;;;;;;;20.87;63.21;97764.28;5021972;28;20460;-62
2022/06/17 07:02:56;;;;;;;4.73;3.07;;;;;;;21.10;68.04;97763.41;5042628;28;20290;-62
2022/06/17 07:05:25;;;;;;;2.70;2.50;;;;;;;21.17;66.34;97770.53;5025951;28;20893;-62
2022/06/17 07:07:53;;;;;;;2.60;2.50;;;;;;;21.13;61.40;97759.41;5043388;28;20253;-63
2022/06/17 07:10:25;;;;;;;2.67;2.57;;;;;;;21.32;65.33;97768.13;5040648;28;20762;-64
2022/06/17 07:12:54;;;;;;;3.63;2.73;;;;;;;21.29;62.32;97762.41;5037502;28;20600;-65
2022/06/17 07:15:25;;;;;;;3.47;2.83;;;;;;;21.53;65.28;97765.84;4992717;28;20767;-66
2022/06/17 07:18:00;;;;;;;3.00;2.80;;;;;;;21.82;60.93;97766.66;5039186;28;20206;-65
2022/06/17 07:20:36;;;;;;;3.53;2.67;;;;;;;21.69;59.05;97772.38;5040209;28;20811;-67
2022/06/17 07:23:05;;;;;;;2.73;2.43;;;;;;;21.73;55.88;97780.78;5024709;28;20764;-63
2022/06/17 07:25:33;;;;;;;2.90;2.70;;;;;;;21.69;56.70;97781.25;5040689;28;20371;-65
2022/06/17 07:28:03;;;;;;;2.63;2.37;;;;;;;21.32;58.45;97781.59;5041298;28;20233;-62
2022/06/17 07:30:32;;;;;;;2.57;2.37;;;;;;;21.47;59.90;97794.56;4994044;28;20590;-64
2022/06/17 07:33:02;;;;;;;2.93;2.70;;;;;;;21.45;58.96;97787.78;5036426;28;20660;-65
2022/06/17 07:35:31;;;;;;;2.80;2.60;;;;;;;21.66;58.80;97799.81;5035952;28;20528;-62
2022/06/17 07:40:47;;;;;;;3.13;2.93;;;;;;;21.79;59.07;97796.81;5039680;28;20250;-65
2022/06/17 07:43:16;;;;;;;3.37;3.10;;;;;;;21.62;57.42;97798.63;5033710;28;20247;-65
2022/06/17 07:45:45;;;;;;;2.90;2.70;;;;;;;21.65;54.47;97792.78;4996202;28;20235;-66
2022/06/17 07:48:16;;;;;;;3.23;2.90;;;;;;;21.67;58.75;97807.66;5035163;28;20200;-63
2022/06/17 07:50:44;;;;;;;2.83;2.70;;;;;;;21.87;58.96;97801.00;5018142;28;20235;-64
2022/06/17 07:53:13;;;;;;;3.10;2.90;;;;;;;22.14;64.05;97791.47;5028855;28;20240;-65
2022/06/17 07:55:42;;;;;;;2.90;2.70;;;;;;;22.23;53.64;97798.94;5037871;28;20299;-63
2022/06/17 07:58:12;;;;;;;3.43;3.23;;;;;;;22.09;57.74;97787.63;5040319;28;20268;-66
2022/06/17 08:00:44;;;;;;;4.43;2.90;;;;;;;21.81;56.14;97797.38;5015890;28;20203;-63
2022/06/17 08:03:13;;;;;;;3.93;2.67;;;;;;;21.87;56.10;97800.19;5032815;28;20222;-64
2022/06/17 08:05:45;;;;;;;3.13;2.93;;;;;;;21.76;55.24;97799.16;5034753;28;20250;-65
2022/06/17 08:08:21;;;;;;;3.07;2.67;;;;;;;21.87;57.47;97795.63;5034828;28;20264;-64
2022/06/17 08:10:50;;;;;;;4.23;3.37;;;;;;;22.31;56.83;97799.56;5035267;28;20285;-61
2022/06/17 08:13:19;;;;;;;4.87;2.80;;;;;;;22.43;54.32;97802.19;5031296;28;20349;-64
2022/06/17 08:15:47;;;;;;;4.00;2.90;;;;;;;22.43;54.33;97800.31;5038575;28;20195;-66
2022/06/17 08:18:15;;;;;;;3.30;3.00;;;;;;;22.21;55.22;97801.06;4998784;28;20265;-63
2022/06/17 08:20:45;;;;;;;5.03;3.07;;;;;;;22.12;54.26;97797.09;5040847;28;20443;-64
2022/06/17 08:23:14;;;;;;;3.63;3.33;;;;;;;22.14;57.15;97805.75;5039371;28;20330;-64
2022/06/17 08:25:43;;;;;;;3.30;3.00;;;;;;;22.17;53.91;97815.28;5031938;28;20467;-62
2022/06/17 08:28:13;;;;;;;3.63;3.10;;;;;;;22.16;55.90;97813.63;5040807;28;20231;-64
2022/06/17 08:30:47;;;;;;;2.87;2.67;;;;;;;22.16;56.44;97809.06;5039732;28;20408;-66
2022/06/17 08:33:16;;;;;;;3.40;3.10;;;;;;;22.25;58.69;97813.00;5003531;28;20284;-64
2022/06/17 08:36:07;;;;;;;3.40;3.13;;;;;;;22.29;53.72;97812.50;4976268;28;22164;-65
2022/06/17 08:38:38;;;;;;;3.27;2.97;;;;;;;22.05;52.28;97818.03;5024724;28;20911;-63
2022/06/17 08:41:16;;;;;;;5.23;3.30;;;;;;;22.20;55.02;97823.72;5030340;28;20264;-64
2022/06/17 08:43:59;;;;;;;3.30;3.00;;;;;;;22.24;50.31;97824.84;5028653;28;20237;-64
2022/06/17 08:46:37;;;;;;;3.20;2.93;;;;;;;22.37;49.15;97821.03;5044043;28;20249;-63
2022/06/17 08:49:18;;;;;;;3.20;3.00;;;;;;;22.30;50.88;97820.34;5046214;28;20614;-65
2022/06/17 08:52:18;;;;;;;4.10;3.70;;;;;;;22.30;48.87;97825.72;4999609;28;20699;-61
2022/06/17 08:54:56;;;;;;;3.47;3.00;;;;;;;22.29;55.68;97823.31;5041634;28;20227;-62
2022/06/17 08:57:29;;;;;;;3.20;2.90;;;;;;;22.30;48.82;97824.94;5033185;28;20284;-65
2022/06/17 09:00:08;;;;;;;4.00;3.10;;;;;;;22.24;52.23;97829.41;5027571;28;20540;-67
2022/06/17 09:02:50;;;;;;;3.00;2.80;;;;;;;22.40;52.91;97827.78;5041975;28;20218;-63
2022/06/17 09:05:33;;;;;;;2.97;2.77;;;;;;;22.43;52.62;97821.91;5041008;28;20302;-66
2022/06/17 09:08:17;;;;;;;5.07;2.87;;;;;;;22.48;49.15;97821.22;5032712;28;20217;-64
2022/06/17 09:10:57;;;;;;;2.83;2.63;;;;;;;22.64;49.18;97825.78;5034818;28;20256;-64
2022/06/17 09:13:34;;;;;;;3.03;2.83;;;;;;;22.61;48.93;97820.88;5011682;28;20487;-64
2022/06/17 09:16:06;;;;;;;3.00;2.80;;;;;;;22.82;48.45;97816.59;5033195;28;20215;-63
2022/06/17 09:18:37;;;;;;;3.53;2.80;;;;;;;22.95;48.96;97822.72;5042695;28;20218;-64
2022/06/17 09:21:09;;;;;;;5.20;2.57;;;;;;;23.04;48.98;97823.09;5014505;28;20235;-66
2022/06/17 09:23:40;;;;;;;4.47;3.57;;;;;;;22.82;47.79;97827.38;5039428;28;20561;-65
2022/06/17 09:26:14;;;;;;;3.07;2.77;;;;;;;22.89;47.37;97816.41;5044586;28;20599;-62
2022/06/17 09:28:46;;;;;;;3.33;3.07;;;;;;;23.04;46.66;97807.69;5032117;28;20359;-64
2022/06/17 09:31:18;;;;;;;3.20;3.00;;;;;;;23.03;47.55;97807.94;5027297;28;20203;-65
2022/06/17 09:33:49;;;;;;;2.60;2.50;;;;;;;23.09;45.74;97804.22;5038636;28;20319;-65
2022/06/17 09:36:21;;;;;;;3.07;2.80;;;;;;;23.06;47.69;97805.56;4998323;28;20881;-67
2022/06/17 09:38:54;;;;;;;3.13;2.90;;;;;;;23.34;47.74;97811.06;5042004;28;20242;-65
2022/06/17 09:41:24;;;;;;;4.97;3.07;;;;;;;23.50;44.62;97807.50;5035760;28;20207;-70
2022/06/17 09:43:55;;;;;;;3.07;2.73;;;;;;;23.70;45.67;97803.38;5029559;28;20875;-66
2022/06/17 09:46:26;;;;;;;2.63;2.50;;;;;;;23.61;45.09;97805.69;5029117;28;20235;-65
2022/06/17 09:48:58;;;;;;;3.17;2.67;;;;;;;23.78;45.70;97794.78;5042824;28;20509;-67
2022/06/17 09:51:31;;;;;;;3.17;2.87;;;;;;;23.80;44.76;97789.94;5023491;28;20708;-68
2022/06/17 09:54:06;;;;;;;3.30;3.00;;;;;;;23.83;46.05;97794.84;5041390;28;20317;-66
2022/06/17 09:56:41;;;;;;;2.83;2.63;;;;;;;23.78;43.75;97794.00;5037148;28;20545;-68
2022/06/17 09:59:16;;;;;;;2.67;2.57;;;;;;;23.88;44.91;97795.97;5045356;28;20760;-66
2022/06/17 10:01:46;;;;;;;3.80;2.73;;;;;;;23.89;43.75;97792.19;5026930;28;20218;-68
2022/06/17 10:04:16;;;;;;;4.40;2.50;;;;;;;23.84;43.37;97785.66;5044086;28;20305;-65
2022/06/17 10:06:58;;;;;;;2.90;2.70;;;;;;;23.73;44.45;97788.53;5046123;28;20437;-66
2022/06/17 10:09:46;;;;;;;2.70;2.30;;;;;;;23.85;45.59;97787.28;5001277;28;20309;-67
2022/06/17 10:12:18;;;;;;;3.03;2.83;;;;;;;23.72;42.96;97784.19;5041830;28;20207;-66
2022/06/17 10:15:03;;;;;;;3.40;3.07;;;;;;;23.80;42.97;97789.13;5030965;28;20419;-69
2022/06/17 10:20:34;;;;;;;2.60;2.50;;;;;;;23.79;42.25;97779.38;5043003;28;20198;-67
2022/06/17 10:23:09;;;;;;;3.03;2.30;;;;;;;23.81;41.03;97777.25;5002338;28;20273;-65
2022/06/17 10:25:54;;;;;;;3.43;2.40;;;;;;;24.08;42.65;97774.53;5036726;28;20233;-65
2022/06/17 10:28:36;;;;;;;2.03;1.93;;;;;;;24.12;41.66;97767.53;5040531;28;20226;-67
2022/06/17 10:31:10;;;;;;;2.73;2.53;;;;;;;24.27;42.33;97774.97;5032575;28;20261;-64
2022/06/17 10:33:39;;;;;;;3.40;2.77;;;;;;;24.14;41.39;97767.28;5037376;28;20426;-66
2022/06/17 10:36:08;;;;;;;2.80;2.60;;;;;;;24.19;43.03;97771.91;5043920;28;20203;-66
2022/06/17 10:38:38;;;;;;;2.57;2.37;;;;;;;24.26;41.81;97761.69;5000267;28;22085;-67
2022/06/17 10:41:09;;;;;;;2.77;2.57;;;;;;;24.42;43.32;97762.59;5041220;28;20248;-66
2022/06/17 10:43:40;;;;;;;3.03;2.93;;;;;;;24.47;41.31;97764.53;4998639;28;20235;-67
2022/06/17 10:46:14;;;;;;;2.60;2.50;;;;;;;24.51;40.67;97769.19;5024933;28;20771;-66
2022/06/17 10:48:46;;;;;;;3.63;2.80;;;;;;;24.52;40.16;97776.22;5042839;28;20579;-67
2022/06/17 10:51:14;;;;;;;2.53;2.33;;;;;;;24.45;41.45;97764.81;5027094;28;21995;-67
2022/06/17 10:53:45;;;;;;;2.53;2.40;;;;;;;24.51;40.64;97757.53;5041007;28;20251;-66
2022/06/17 10:56:19;;;;;;;2.20;2.10;;;;;;;24.45;39.38;97759.41;5037722;28;20679;-66
2022/06/17 10:59:02;;;;;;;2.73;2.50;;;;;;;24.35;39.70;97756.59;4999220;28;20302;-67
2022/06/17 11:01:52;;;;;;;2.57;2.47;;;;;;;24.47;38.97;97759.94;5038324;28;20304;-66
2022/06/17 11:04:24;;;;;;;3.00;2.73;;;;;;;24.65;42.09;97755.19;5041738;28;20280;-66
2022/06/17 11:06:55;;;;;;;7.87;2.33;;;;;;;24.73;40.03;97751.16;5025648;28;20784;-67
2022/06/17 11:09:27;;;;;;;2.70;2.50;;;;;;;24.70;40.52;97750.59;5043496;28;20325;-67
2022/06/17 11:12:13;;;;;;;2.50;2.40;;;;;;;24.57;39.93;97760.00;5037297;28;20399;-66
2022/06/17 11:14:50;;;;;;;2.47;2.27;;;;;;;24.74;39.69;97750.09;5002415;28;20395;-64
2022/06/17 11:17:21;;;;;;;3.37;2.10;;;;;;;24.93;38.38;97767.53;5031202;28;20298;-68
2022/06/17 11:19:51;;;;;;;2.20;2.10;;;;;;;24.83;39.91;97765.63;5042286;28;20334;-66
2022/06/17 11:22:26;;;;;;;2.40;2.30;;;;;;;24.70;37.09;97763.31;5032829;28;20380;-65
2022/06/17 11:24:57;;;;;;;2.97;2.57;;;;;;;24.80;36.64;97768.03;5030693;28;20878;-66
2022/06/17 11:27:33;;;;;;;3.17;2.03;;;;;;;24.66;37.10;97773.88;5040166;28;20654;-65
2022/06/17 11:30:21;;;;;;;2.57;1.93;;;;;;;24.73;37.44;97768.22;4981023;28;20738;-67
2022/06/17 11:32:50;;;;;;;2.30;2.10;;;;;;;24.86;37.47;97766.97;5036827;28;20235;-66
2022/06/17 11:35:22;;;;;;;3.20;2.20;;;;;;;25.10;38.29;97764.63;5037949;28;20289;-67
2022/06/17 11:37:51;;;;;;;2.30;2.10;;;;;;;25.25;37.55;97758.47;5029426;28;20238;-65
2022/06/17 11:40:21;;;;;;;8.93;2.63;;;;;;;25.22;37.08;97759.00;5042091;28;20241;-67
2022/06/17 11:42:54;;;;;;;2.87;2.00;;;;;;;25.24;36.53;97746.00;5041463;28;20207;-65
2022/06/17 11:45:25;;;;;;;2.37;2.17;;;;;;;25.46;36.70;97750.44;5002614;28;20288;-67
2022/06/17 11:47:57;;;;;;;1.70;1.63;;;;;;;25.55;35.39;97750.72;5039415;28;20358;-66
2022/06/17 11:50:27;;;;;;;1.80;1.73;;;;;;;25.53;35.23;97747.44;5037816;28;20267;-66
2022/06/17 11:53:02;;;;;;;2.47;2.27;;;;;;;25.39;35.25;97745.22;5044813;28;20654;-66
2022/06/17 11:55:32;;;;;;;2.63;2.37;;;;;;;25.46;34.68;97752.28;5025534;28;20400;-70
2022/06/17 11:58:22;;;;;;;2.27;2.17;;;;;;;25.28;34.39;97738.94;5043120;28;20206;-66
2022/06/17 12:00:51;;;;;;;1.80;1.70;;;;;;;25.50;35.75;97750.69;4996394;28;20217;-67
2022/06/17 12:03:22;;;;;;;3.67;2.20;;;;;;;25.60;35.12;97747.19;5036442;28;20309;-68